Richmond, Louisiana
Current Conditions -  °F | °C
As of 3:53 PM on Monday 20 Oct 2014 (Local Time) from KTVR Reporting Station
Clear Clear  
Wind Chill: 76°   Ceiling: Unl
Heat Index: 76°   Visibility: 10mi
Dew Point: 49°   Wind: 3mph
Humidity: 38%   Direction: 80°E
Pressure: 30.03"   Gusts: NA
Location:  32.3599°N, 91.2529°W
Report Text: KTVR 202053Z AUTO 08003KT 10SM CLR 24/09 A3003 RMK AO2 SLP175 T02440094 56016
Loading
Personal Weather Stations






























Interactive Weather Map New forecast layout! Learn more

10-Day Weather Forecast

Advertisements
Track Severe Weather on mobile